Time;durP1;ratioP1;P1;durP2;ratioP2;P2;SDS_P1;SDS_P2;PMS_P1;PMS_P2;Temp;Humidity;BMP_temperature;BMP_pressure;BME280_temperature;BME280_humidity;BME280_pressure;Samples;Min_cycle;Max_cycle;Signal;HPM_P1;HPM_P2
2023/03/31 00:01:03;;;;;;;5.22;3.88;;;5.20;99.90;;;;;;5049294;28;19942;-89
2023/03/31 00:03:32;;;;;;;9.93;4.70;;;5.30;99.90;;;;;;5049055;28;20048;-88
2023/03/31 00:06:02;;;;;;;7.20;4.22;;;5.40;99.90;;;;;;5030608;28;20052;-88
2023/03/31 00:08:34;;;;;;;2.88;2.50;;;5.50;99.90;;;;;;5049626;28;20837;-87
2023/03/31 00:11:06;;;;;;;6.68;4.22;;;5.40;99.90;;;;;;5065788;28;20456;-88
2023/03/31 00:13:37;;;;;;;6.00;4.10;;;5.00;99.90;;;;;;5032483;28;20420;-88
2023/03/31 00:16:08;;;;;;;5.45;3.60;;;4.80;99.90;;;;;;5047901;28;20563;-86
2023/03/31 00:18:39;;;;;;;5.45;5.05;;;5.00;99.90;;;;;;5013060;28;20049;-87
2023/03/31 00:21:13;;;;;;;8.60;5.90;;;5.10;99.90;;;;;;5028357;28;20478;-88
2023/03/31 00:23:42;;;;;;;4.88;3.97;;;5.20;99.90;;;;;;5055438;28;20040;-88
2023/03/31 00:26:09;;;;;;;7.80;5.28;;;5.40;99.90;;;;;;5056932;28;20052;-88
2023/03/31 00:28:37;;;;;;;9.15;4.47;;;5.50;99.90;;;;;;5082780;28;20059;-88
2023/03/31 00:31:05;;;;;;;5.47;4.57;;;5.60;99.90;;;;;;5057345;28;20051;-87
2023/03/31 00:33:32;;;;;;;5.38;4.05;;;5.60;99.90;;;;;;5073390;28;20052;-88
2023/03/31 00:36:00;;;;;;;6.45;4.35;;;5.60;99.90;;;;;;5056013;28;20052;-87
2023/03/31 00:38:29;;;;;;;6.45;5.55;;;5.70;99.90;;;;;;5031825;28;20055;-88
2023/03/31 00:40:57;;;;;;;5.43;4.93;;;5.70;99.90;;;;;;5026623;28;20059;-89
2023/03/31 00:43:31;;;;;;;6.10;5.28;;;5.80;99.90;;;;;;5057939;28;20516;-88
2023/03/31 00:46:26;;;;;;;6.30;5.13;;;5.80;99.90;;;;;;5037190;28;20040;-88
2023/03/31 00:48:56;;;;;;;5.57;4.95;;;5.90;99.90;;;;;;5032519;28;20421;-87
2023/03/31 00:51:31;;;;;;;10.57;6.30;;;5.80;99.90;;;;;;5069144;28;20059;-87
2023/03/31 00:54:05;;;;;;;6.05;5.53;;;5.80;99.90;;;;;;5054735;28;20279;-88
2023/03/31 00:56:38;;;;;;;7.50;5.18;;;5.70;99.90;;;;;;5079101;28;20045;-88
2023/03/31 00:59:10;;;;;;;9.65;5.22;;;5.70;99.90;;;;;;5057568;28;20060;-88
2023/03/31 01:01:41;;;;;;;6.15;4.70;;;5.60;99.90;;;;;;5049077;28;20056;-88
2023/03/31 01:04:12;;;;;;;6.00;5.43;;;5.60;99.90;;;;;;5053444;28;20345;-88
2023/03/31 01:06:56;;;;;;;5.63;5.13;;;5.60;99.90;;;;;;5080432;28;20055;-88
2023/03/31 01:09:24;;;;;;;4.57;4.18;;;5.60;99.90;;;;;;5057077;28;20067;-89
2023/03/31 01:11:52;;;;;;;4.93;4.20;;;5.50;99.90;;;;;;5073669;28;20420;-87
2023/03/31 01:14:20;;;;;;;4.72;4.18;;;5.50;99.90;;;;;;5082867;28;20551;-87
2023/03/31 01:16:48;;;;;;;4.63;4.22;;;5.30;99.90;;;;;;5083644;28;20516;-88
2023/03/31 01:19:32;;;;;;;7.82;5.45;;;5.30;99.90;;;;;;5056343;28;20052;-89
2023/03/31 01:22:29;;;;;;;6.45;5.00;;;5.30;99.90;;;;;;5031466;28;20071;-88
2023/03/31 01:25:18;;;;;;;6.32;4.03;;;5.30;99.90;;;;;;4991614;28;20593;-88
2023/03/31 01:28:10;;;;;;;5.55;4.55;;;5.50;99.90;;;;;;5034853;28;20052;-88
2023/03/31 01:30:58;;;;;;;;;;;5.50;99.90;;;;;;5065172;28;20040;-88
2023/03/31 01:33:41;;;;;;;5.13;4.38;;;5.50;99.90;;;;;;5041817;28;19932;-88
2023/03/31 01:36:35;;;;;;;8.80;5.50;;;5.50;99.90;;;;;;5030324;28;20048;-89
2023/03/31 01:39:39;;;;;;;10.25;4.95;;;5.50;99.90;;;;;;5032023;28;20048;-87
2023/03/31 01:42:20;;;;;;;14.70;5.68;;;5.60;99.90;;;;;;5064142;28;20040;-89
2023/03/31 01:45:12;;;;;;;7.88;4.15;;;5.60;99.90;;;;;;5043429;28;20053;-88
2023/03/31 01:47:50;;;;;;;5.65;4.68;;;5.70;99.90;;;;;;5029133;28;20044;-88
2023/03/31 01:50:42;;;;;;;7.10;5.45;;;5.80;99.90;;;;;;5028867;28;20049;-88
2023/03/31 01:53:47;;;;;;;10.10;5.88;;;5.90;99.90;;;;;;5016610;28;20064;-90
2023/03/31 01:56:20;;;;;;;5.35;4.70;;;5.90;99.90;;;;;;5009495;28;20049;-90
2023/03/31 01:58:51;;;;;;;7.57;5.78;;;5.90;99.90;;;;;;5031849;28;20051;-90
2023/03/31 02:01:56;;;;;;;7.55;6.53;;;5.80;99.90;;;;;;5049185;28;20056;-90
2023/03/31 02:04:38;;;;;;;6.53;5.25;;;5.90;99.90;;;;;;5042667;28;20041;-91
2023/03/31 02:07:16;;;;;;;6.07;5.07;;;5.80;99.90;;;;;;5030802;28;20395;-88
2023/03/31 02:09:49;;;;;;;6.00;5.47;;;5.60;99.90;;;;;;5041529;28;20044;-87
2023/03/31 02:12:20;;;;;;;6.80;5.68;;;5.40;99.90;;;;;;5037702;28;20612;-89
2023/03/31 02:14:51;;;;;;;5.75;5.20;;;5.40;99.90;;;;;;5042625;28;20055;-87
2023/03/31 02:17:29;;;;;;;9.95;5.32;;;5.40;99.90;;;;;;5032789;28;20056;-89
2023/03/31 02:20:11;;;;;;;10.18;5.45;;;5.70;99.90;;;;;;5034299;28;20296;-88
2023/03/31 02:22:44;;;;;;;10.45;5.15;;;5.70;99.90;;;;;;5032818;28;20075;-87
2023/03/31 02:25:18;;;;;;;12.07;6.15;;;5.80;99.90;;;;;;5053498;28;20051;-88
2023/03/31 02:27:55;;;;;;;6.43;5.75;;;5.70;99.90;;;;;;5036489;28;20417;-88
2023/03/31 02:30:33;;;;;;;8.98;5.43;;;5.70;99.90;;;;;;5049690;28;20060;-88
2023/03/31 02:33:03;;;;;;;13.75;5.25;;;5.80;99.90;;;;;;5048799;28;20059;-89
2023/03/31 02:35:39;;;;;;;6.85;6.10;;;5.90;99.90;;;;;;5039098;28;20056;-87
2023/03/31 02:38:08;;;;;;;8.93;5.75;;;5.90;99.90;;;;;;5046636;28;20053;-88
2023/03/31 02:40:36;;;;;;;8.30;5.75;;;5.90;99.90;;;;;;5026865;28;20069;-89
2023/03/31 02:43:04;;;;;;;10.15;5.82;;;5.80;99.90;;;;;;5031386;28;20397;-88
2023/03/31 02:45:35;;;;;;;8.10;7.28;;;5.80;99.90;;;;;;5051227;28;20052;-87
2023/03/31 02:48:05;;;;;;;7.25;5.55;;;5.90;99.90;;;;;;5057917;28;20048;-87
2023/03/31 02:50:58;;;;;;;8.05;5.57;;;5.90;99.90;;;;;;5034997;28;20439;-88
2023/03/31 02:53:59;;;;;;;7.65;6.63;;;5.90;99.90;;;;;;5045177;28;20056;-89
2023/03/31 02:56:55;;;;;;;11.35;6.10;;;5.70;99.90;;;;;;4988011;28;20766;-90
2023/03/31 02:59:41;;;;;;;6.68;5.70;;;5.70;99.90;;;;;;5043096;28;20052;-89
2023/03/31 03:02:17;;;;;;;7.40;6.70;;;5.60;99.90;;;;;;5032398;28;20369;-89
2023/03/31 03:05:00;;;;;;;8.05;5.00;;;5.70;99.90;;;;;;5030478;28;20055;-88
2023/03/31 03:07:44;;;;;;;8.73;7.43;;;5.70;99.90;;;;;;5023214;28;20055;-88
2023/03/31 03:10:34;;;;;;;7.38;6.68;;;5.70;99.90;;;;;;5064897;28;20044;-88
2023/03/31 03:13:27;;;;;;;6.97;5.65;;;5.70;99.90;;;;;;5064013;28;20056;-89
2023/03/31 03:16:04;;;;;;;6.65;4.80;;;5.70;99.90;;;;;;5029929;28;20056;-87
2023/03/31 03:18:33;;;;;;;6.15;5.18;;;6.10;99.90;;;;;;5075242;28;20051;-88
2023/03/31 03:21:01;;;;;;;7.10;5.30;;;6.30;99.90;;;;;;5068455;28;20055;-89
2023/03/31 03:23:30;;;;;;;13.18;6.78;;;6.50;99.90;;;;;;5034090;28;20520;-89
2023/03/31 03:25:58;;;;;;;6.63;6.07;;;6.60;99.90;;;;;;5032405;28;20464;-88
2023/03/31 03:28:26;;;;;;;14.27;6.20;;;6.60;99.90;;;;;;5046163;28;20063;-88
2023/03/31 03:30:54;;;;;;;14.15;6.60;;;6.60;99.90;;;;;;5038555;28;20409;-89
2023/03/31 03:33:23;;;;;;;10.20;9.02;;;6.60;99.90;;;;;;5037466;28;20060;-89
2023/03/31 03:35:51;;;;;;;7.88;6.35;;;6.70;99.90;;;;;;5008963;28;20511;-87
2023/03/31 03:38:19;;;;;;;5.38;4.88;;;6.60;99.90;;;;;;5021594;28;20087;-87
2023/03/31 03:40:52;;;;;;;9.40;6.35;;;6.60;99.90;;;;;;5018373;28;20049;-88
2023/03/31 03:43:21;;;;;;;9.85;6.63;;;6.70;99.90;;;;;;5024391;28;20533;-89
2023/03/31 03:45:50;;;;;;;6.38;5.63;;;6.60;99.90;;;;;;5027335;28;20061;-88
2023/03/31 03:48:18;;;;;;;8.10;6.63;;;6.50;99.90;;;;;;5045289;28;20424;-88
2023/03/31 03:50:46;;;;;;;7.38;6.20;;;6.60;99.90;;;;;;5034144;28;20505;-90
2023/03/31 03:53:14;;;;;;;11.90;7.05;;;6.70;99.90;;;;;;5041293;28;20049;-89
2023/03/31 03:55:43;;;;;;;9.05;6.47;;;6.60;99.90;;;;;;5025815;28;20087;-88
2023/03/31 03:58:12;;;;;;;10.05;6.95;;;6.50;99.90;;;;;;5023437;28;20480;-90
2023/03/31 04:00:39;;;;;;;7.53;6.35;;;6.50;99.90;;;;;;5058334;28;20056;-88
2023/03/31 04:03:12;;;;;;;9.48;5.80;;;6.50;99.90;;;;;;5036165;28;20045;-90
2023/03/31 04:05:40;;;;;;;11.20;6.53;;;6.50;99.90;;;;;;5013842;28;20067;-88
2023/03/31 04:08:08;;;;;;;10.02;5.70;;;6.50;99.90;;;;;;5054362;28;20484;-89
2023/03/31 04:10:36;;;;;;;7.78;6.97;;;6.60;99.90;;;;;;5054520;28;20044;-87
2023/03/31 04:13:05;;;;;;;9.85;6.38;;;6.80;99.90;;;;;;5034576;28;20547;-87
2023/03/31 04:15:33;;;;;;;8.52;6.45;;;7.00;99.90;;;;;;5009907;28;20041;-88
2023/03/31 04:18:04;;;;;;;13.80;7.05;;;7.10;99.90;;;;;;5039859;28;20049;-89
2023/03/31 04:20:33;;;;;;;6.30;5.40;;;7.10;99.90;;;;;;5000736;28;20060;-87
2023/03/31 04:23:01;;;;;;;13.27;6.75;;;7.20;99.90;;;;;;5066483;28;20040;-88
2023/03/31 04:25:29;;;;;;;11.77;6.22;;;7.30;99.90;;;;;;5067592;28;20644;-88
2023/03/31 04:27:57;;;;;;;6.55;5.30;;;7.20;99.90;;;;;;5068056;28;20087;-88
2023/03/31 04:30:32;;;;;;;11.07;6.50;;;7.30;99.90;;;;;;5047943;28;20737;-88
2023/03/31 04:33:01;;;;;;;10.75;7.25;;;7.40;99.90;;;;;;5063641;28;20517;-87
2023/03/31 04:35:48;;;;;;;9.00;5.07;;;7.40;99.90;;;;;;5048918;28;20051;-88
2023/03/31 04:38:21;;;;;;;8.38;6.22;;;7.40;99.90;;;;;;5038634;28;20052;-89
2023/03/31 04:40:50;;;;;;;7.10;4.80;;;7.40;99.90;;;;;;5049102;28;20061;-88
2023/03/31 04:43:21;;;;;;;8.40;5.88;;;7.40;99.90;;;;;;5049183;28;20519;-88
2023/03/31 04:45:49;;;;;;;7.10;4.57;;;7.40;99.90;;;;;;5035258;28;20053;-87
2023/03/31 04:48:17;;;;;;;12.55;5.22;;;7.40;99.90;;;;;;5031766;28;20049;-88
2023/03/31 04:50:45;;;;;;;8.77;5.50;;;7.30;99.90;;;;;;5036312;28;20049;-87
2023/03/31 04:53:13;;;;;;;9.02;6.05;;;7.30;99.90;;;;;;5066872;28;20056;-88
2023/03/31 04:55:41;;;;;;;9.25;5.60;;;7.30;99.90;;;;;;5053965;28;20491;-89
2023/03/31 04:58:10;;;;;;;14.50;5.85;;;7.40;99.90;;;;;;5047490;28;20045;-87
2023/03/31 05:00:38;;;;;;;8.38;6.30;;;7.30;99.90;;;;;;5032479;28;20428;-89
2023/03/31 05:03:09;;;;;;;7.15;5.32;;;7.30;99.90;;;;;;5057247;28;20071;-90
2023/03/31 05:05:37;;;;;;;10.82;6.00;;;7.30;99.90;;;;;;5049467;28;20060;-90
2023/03/31 05:08:05;;;;;;;17.65;7.35;;;7.40;99.90;;;;;;5050828;28;20060;-88
2023/03/31 05:10:33;;;;;;;9.60;6.90;;;7.30;99.90;;;;;;5063739;28;20797;-91
2023/03/31 05:13:01;;;;;;;11.35;7.65;;;7.30;99.90;;;;;;5032868;28;20500;-91
2023/03/31 05:15:29;;;;;;;17.15;7.03;;;7.30;99.90;;;;;;5051073;28;20048;-91
2023/03/31 05:18:00;;;;;;;6.80;5.10;;;7.20;99.90;;;;;;5066505;28;20045;-90
2023/03/31 05:20:29;;;;;;;7.85;6.97;;;7.10;99.90;;;;;;5035980;28;20303;-88
2023/03/31 05:22:58;;;;;;;11.75;6.30;;;7.10;99.90;;;;;;5035427;28;20059;-90
2023/03/31 05:25:31;;;;;;;10.63;6.45;;;7.20;99.90;;;;;;5049746;28;20056;-88
2023/03/31 05:28:00;;;;;;;13.13;8.43;;;7.20;99.90;;;;;;5056374;28;20052;-87
2023/03/31 05:30:28;;;;;;;11.82;6.90;;;7.30;99.90;;;;;;5042937;28;20417;-88
2023/03/31 05:32:59;;;;;;;8.63;5.88;;;7.30;99.90;;;;;;5061620;28;20425;-88
2023/03/31 05:35:28;;;;;;;13.70;12.27;;;7.30;99.90;;;;;;5029672;28;20059;-91
2023/03/31 05:37:56;;;;;;;8.07;5.72;;;7.30;99.90;;;;;;5036798;28;20052;-89
2023/03/31 05:40:24;;;;;;;11.75;8.50;;;7.20;99.90;;;;;;5032342;28;20056;-90
2023/03/31 05:42:53;;;;;;;13.30;12.00;;;7.20;99.90;;;;;;5045818;28;20285;-89
2023/03/31 05:45:21;;;;;;;7.93;7.13;;;7.10;99.90;;;;;;5039358;28;20063;-91
2023/03/31 05:47:48;;;;;;;17.35;9.82;;;7.00;99.90;;;;;;5044109;28;20612;-89
2023/03/31 05:50:16;;;;;;;30.58;27.73;;;7.00;99.90;;;;;;5064145;28;20386;-89
2023/03/31 05:52:46;;;;;;;11.25;7.60;;;7.00;99.90;;;;;;5047724;28;20249;-89
2023/03/31 05:55:14;;;;;;;10.80;9.05;;;6.90;99.90;;;;;;5029734;28;20048;-90
2023/03/31 05:57:42;;;;;;;16.80;15.02;;;6.90;99.90;;;;;;5062563;28;20051;-90
2023/03/31 06:00:11;;;;;;;22.85;20.63;;;6.90;99.90;;;;;;5051307;28;20048;-89
2023/03/31 06:02:40;;;;;;;12.27;8.05;;;6.90;99.90;;;;;;5024580;28;20464;-91
2023/03/31 06:05:08;;;;;;;12.38;10.55;;;6.90;99.90;;;;;;5047475;28;20052;-90
2023/03/31 06:07:36;;;;;;;9.75;7.28;;;6.90;99.90;;;;;;5076086;28;20055;-90
2023/03/31 06:10:06;;;;;;;11.45;8.27;;;6.90;99.90;;;;;;5062567;28;20044;-90
2023/03/31 06:12:34;;;;;;;10.90;9.60;;;7.00;99.90;;;;;;5060607;28;20052;-90
2023/03/31 06:15:03;;;;;;;47.92;34.97;;;7.10;99.90;;;;;;5035243;28;20044;-89
2023/03/31 06:17:31;;;;;;;19.80;15.88;;;7.20;99.90;;;;;;5075788;28;20060;-90
2023/03/31 06:19:59;;;;;;;47.25;42.63;;;7.30;99.90;;;;;;5058978;28;20062;-88
2023/03/31 06:22:27;;;;;;;11.90;7.38;;;7.50;99.90;;;;;;5039655;28;20056;-91
2023/03/31 06:24:54;;;;;;;11.98;8.20;;;7.50;99.90;;;;;;5068938;28;20355;-90
2023/03/31 06:27:22;;;;;;;17.73;16.02;;;7.50;99.90;;;;;;5067705;28;20689;-90
2023/03/31 06:29:50;;;;;;;12.75;10.48;;;7.70;99.90;;;;;;5035751;28;20453;-90
2023/03/31 06:32:21;;;;;;;10.93;7.68;;;7.80;99.90;;;;;;5035297;28;20049;-90
2023/03/31 06:34:48;;;;;;;25.23;22.58;;;7.80;99.90;;;;;;5038363;28;20059;-91
2023/03/31 06:37:17;;;;;;;12.20;9.80;;;7.90;99.90;;;;;;5059461;28;20055;-90
2023/03/31 06:39:45;;;;;;;9.13;6.88;;;8.30;99.90;;;;;;5042018;28;20040;-90
2023/03/31 06:42:13;;;;;;;8.63;7.25;;;8.40;99.90;;;;;;5017466;28;20044;-89
2023/03/31 06:44:41;;;;;;;9.05;7.50;;;8.40;99.90;;;;;;5068736;28;20056;-89
2023/03/31 06:47:09;;;;;;;11.40;7.80;;;8.30;99.90;;;;;;5040520;28;20508;-88
2023/03/31 06:49:37;;;;;;;12.57;9.63;;;8.30;99.90;;;;;;5064950;28;20390;-89
2023/03/31 06:52:05;;;;;;;12.80;8.98;;;8.30;99.90;;;;;;5041623;28;20067;-88
2023/03/31 06:54:33;;;;;;;9.40;7.38;;;8.50;99.90;;;;;;5052628;28;20659;-88
2023/03/31 06:57:01;;;;;;;9.88;8.10;;;8.70;99.90;;;;;;5052932;28;20436;-87
2023/03/31 06:59:29;;;;;;;8.30;7.00;;;8.60;99.90;;;;;;5067998;28;20631;-88
2023/03/31 07:01:58;;;;;;;7.57;6.78;;;8.60;99.90;;;;;;5064205;28;20048;-87
2023/03/31 07:04:26;;;;;;;8.75;7.50;;;8.50;99.90;;;;;;5038960;28;20041;-87
2023/03/31 07:06:54;;;;;;;9.52;7.68;;;9.00;99.90;;;;;;5039951;28;20615;-89
2023/03/31 07:09:22;;;;;;;11.43;6.57;;;10.10;99.90;;;;;;5038926;28;20060;-88
2023/03/31 07:11:50;;;;;;;8.73;7.90;;;10.40;99.90;;;;;;5070196;28;20044;-88
2023/03/31 07:14:23;;;;;;;11.63;6.18;;;10.30;99.90;;;;;;5008696;28;20552;-88
2023/03/31 07:16:51;;;;;;;11.40;6.88;;;10.20;99.90;;;;;;5051114;28;20421;-87
2023/03/31 07:19:19;;;;;;;6.82;6.13;;;9.90;99.90;;;;;;5063037;28;20040;-88
2023/03/31 07:21:46;;;;;;;8.07;5.43;;;9.70;99.90;;;;;;5051036;28;20409;-88
2023/03/31 07:24:15;;;;;;;7.60;6.70;;;9.50;99.90;;;;;;5069419;28;20044;-87
2023/03/31 07:26:43;;;;;;;10.65;6.57;;;9.20;99.90;;;;;;5058561;28;20058;-87
2023/03/31 07:29:10;;;;;;;6.80;5.95;;;8.90;99.90;;;;;;5055374;28;20052;-89
2023/03/31 07:31:38;;;;;;;13.55;6.65;;;8.70;99.90;;;;;;5049661;28;20045;-89
2023/03/31 07:34:06;;;;;;;10.10;5.95;;;8.60;99.90;;;;;;5061355;28;20052;-87
2023/03/31 07:36:34;;;;;;;7.10;6.40;;;8.40;99.90;;;;;;5008762;28;20053;-87
2023/03/31 07:39:04;;;;;;;8.18;5.40;;;8.20;99.90;;;;;;5055257;28;20053;-88
2023/03/31 07:41:32;;;;;;;7.38;6.68;;;8.10;99.90;;;;;;5053505;28;20428;-89
2023/03/31 07:43:59;;;;;;;10.05;6.05;;;8.20;99.90;;;;;;5067455;28;20052;-91
2023/03/31 07:46:36;;;;;;;8.27;6.38;;;8.10;99.90;;;;;;5067674;28;20051;-89
2023/03/31 07:49:06;;;;;;;5.50;5.05;;;8.10;99.90;;;;;;5032230;28;20471;-88
2023/03/31 07:51:34;;;;;;;7.28;5.70;;;8.10;99.90;;;;;;5035449;28;20051;-89
2023/03/31 07:54:02;;;;;;;6.35;5.60;;;8.10;99.90;;;;;;5030490;28;20041;-91
2023/03/31 07:56:30;;;;;;;8.68;6.38;;;8.10;99.90;;;;;;5023977;28;20049;-89
2023/03/31 07:59:04;;;;;;;10.50;5.05;;;8.10;99.90;;;;;;5059160;28;20044;-90
2023/03/31 08:01:32;;;;;;;12.65;6.38;;;8.10;99.90;;;;;;5057003;28;20049;-90
2023/03/31 08:04:03;;;;;;;5.82;4.88;;;8.20;99.90;;;;;;5040519;28;20408;-90
2023/03/31 08:06:32;;;;;;;12.77;7.05;;;8.20;99.90;;;;;;5032245;28;20446;-89
2023/03/31 08:09:00;;;;;;;6.32;5.32;;;8.30;99.90;;;;;;5032799;28;20065;-90
2023/03/31 08:11:28;;;;;;;11.75;7.05;;;8.30;99.90;;;;;;5050849;28;20048;-90
2023/03/31 08:13:59;;;;;;;9.73;6.80;;;8.30;99.90;;;;;;5046753;28;20049;-90
2023/03/31 08:16:27;;;;;;;6.88;5.82;;;8.40;99.90;;;;;;5067746;28;20064;-90
2023/03/31 08:18:55;;;;;;;6.45;5.75;;;8.50;99.90;;;;;;5032499;28;20376;-90
2023/03/31 08:21:27;;;;;;;7.45;5.35;;;8.40;99.90;;;;;;5042154;28;20060;-89
2023/03/31 08:23:57;;;;;;;10.88;5.35;;;8.60;99.90;;;;;;5048478;28;20049;-89
2023/03/31 08:26:25;;;;;;;9.70;5.90;;;8.60;99.90;;;;;;5026018;28;20079;-90
2023/03/31 08:28:53;;;;;;;9.10;6.15;;;8.80;99.90;;;;;;5031325;28;20053;-88
2023/03/31 08:31:22;;;;;;;10.38;6.18;;;9.10;99.90;;;;;;5039371;28;20049;-90
2023/03/31 08:33:54;;;;;;;8.32;6.40;;;9.10;99.90;;;;;;4996557;28;20392;-89
2023/03/31 08:36:22;;;;;;;8.10;7.30;;;9.20;99.90;;;;;;5042053;28;20097;-89
2023/03/31 08:38:51;;;;;;;7.40;6.47;;;9.10;99.90;;;;;;5022332;28;20048;-88
2023/03/31 08:41:49;;;;;;;8.90;7.43;;;9.00;99.90;;;;;;5031571;28;20053;-89
2023/03/31 08:44:33;;;;;;;12.85;7.03;;;8.90;99.90;;;;;;5039025;28;20048;-89
2023/03/31 08:47:04;;;;;;;9.52;8.30;;;8.90;99.90;;;;;;5024764;28;20036;-90
2023/03/31 08:49:48;;;;;;;8.35;6.80;;;9.40;99.90;;;;;;5030545;28;20056;-89
2023/03/31 08:52:23;;;;;;;6.63;5.95;;;9.60;99.90;;;;;;4998143;28;20044;-88
2023/03/31 08:54:58;;;;;;;11.88;7.32;;;9.40;99.90;;;;;;5033351;28;20317;-88
2023/03/31 08:57:42;;;;;;;7.90;6.97;;;9.10;99.90;;;;;;5044923;28;20053;-88
2023/03/31 09:00:19;;;;;;;7.22;6.20;;;9.10;99.90;;;;;;5034796;28;20045;-90
2023/03/31 09:02:59;;;;;;;9.50;6.05;;;8.90;99.90;;;;;;5041033;28;20040;-89
2023/03/31 09:06:02;;;;;;;9.50;5.93;;;8.80;99.90;;;;;;5041135;28;20060;-89
2023/03/31 09:08:37;;;;;;;6.97;5.60;;;8.80;99.90;;;;;;5035426;28;20059;-89
2023/03/31 09:11:13;;;;;;;10.00;6.28;;;8.80;99.90;;;;;;5033187;28;20049;-88
2023/03/31 09:13:51;;;;;;;9.10;8.20;;;8.80;99.90;;;;;;5053787;28;20048;-90
2023/03/31 09:16:26;;;;;;;8.55;5.93;;;8.80;99.90;;;;;;5053491;28;20057;-88
2023/03/31 09:19:00;;;;;;;8.88;7.55;;;8.70;99.90;;;;;;5042016;28;20048;-89
2023/03/31 09:21:34;;;;;;;12.68;7.90;;;8.60;99.90;;;;;;5033244;28;20040;-89
2023/03/31 09:24:04;;;;;;;6.38;5.70;;;8.70;99.90;;;;;;5048716;28;20413;-89
2023/03/31 09:26:37;;;;;;;8.35;7.55;;;8.70;99.90;;;;;;5020137;28;20043;-89
2023/03/31 09:29:17;;;;;;;7.78;5.55;;;8.70;99.90;;;;;;5061151;28;20048;-89
2023/03/31 09:31:46;;;;;;;9.00;6.78;;;8.70;99.90;;;;;;5047927;28;20055;-89
2023/03/31 09:34:27;;;;;;;8.55;6.40;;;8.70;99.90;;;;;;5062435;28;20067;-88
2023/03/31 09:36:55;;;;;;;6.05;4.82;;;8.70;99.90;;;;;;5053496;28;20059;-89
2023/03/31 09:39:23;;;;;;;10.05;7.63;;;8.90;99.90;;;;;;5036293;28;20139;-90
2023/03/31 09:41:54;;;;;;;6.75;6.10;;;9.10;99.90;;;;;;5046112;28;20392;-89
2023/03/31 09:44:27;;;;;;;8.13;5.63;;;9.30;99.90;;;;;;5035083;28;20064;-89
2023/03/31 09:46:55;;;;;;;9.98;6.68;;;9.40;99.90;;;;;;5037314;28;20055;-88
2023/03/31 09:49:27;;;;;;;8.43;6.32;;;9.40;99.90;;;;;;5070101;28;20052;-90
2023/03/31 09:52:12;;;;;;;10.30;6.90;;;9.80;99.90;;;;;;5043497;28;20063;-89
2023/03/31 09:54:50;;;;;;;9.30;8.32;;;10.20;99.90;;;;;;5040712;28;20053;-88
2023/03/31 09:57:25;;;;;;;9.85;7.28;;;10.50;99.90;;;;;;5071298;28;20052;-90
2023/03/31 10:00:04;;;;;;;12.10;6.85;;;10.70;99.90;;;;;;5072077;28;20040;-90
2023/03/31 10:02:44;;;;;;;9.25;6.13;;;10.80;99.90;;;;;;5056555;28;20051;-89
2023/03/31 10:05:47;;;;;;;6.25;5.65;;;10.80;99.90;;;;;;5042380;28;20052;-89
2023/03/31 10:08:18;;;;;;;9.68;5.55;;;10.90;99.90;;;;;;5041802;28;20071;-88
2023/03/31 10:10:47;;;;;;;5.57;4.85;;;11.00;99.90;;;;;;5063432;28;20409;-90
2023/03/31 10:13:25;;;;;;;7.97;4.75;;;11.10;99.90;;;;;;5057360;28;20051;-89
2023/03/31 10:16:08;;;;;;;14.65;8.68;;;11.10;99.90;;;;;;5062256;28;20048;-90
2023/03/31 10:18:40;;;;;;;6.15;5.30;;;11.10;99.90;;;;;;5056302;28;20040;-90
2023/03/31 10:21:24;;;;;;;8.48;5.30;;;10.90;99.90;;;;;;5052647;28;20059;-91
2023/03/31 10:23:53;;;;;;;6.45;5.07;;;10.90;99.90;;;;;;5038297;28;20067;-91
2023/03/31 10:26:26;;;;;;;5.53;5.03;;;10.90;99.90;;;;;;5053529;28;20049;-90
2023/03/31 10:28:54;;;;;;;4.43;3.80;;;10.80;99.90;;;;;;5032548;28;20044;-90
2023/03/31 10:31:35;;;;;;;14.77;4.72;;;10.80;99.90;;;;;;5041395;28;20320;-89
2023/03/31 10:34:08;;;;;;;4.50;3.70;;;10.90;99.90;;;;;;5016878;28;20045;-89
2023/03/31 10:36:53;;;;;;;4.95;3.58;;;11.00;99.90;;;;;;5029443;28;20083;-89
2023/03/31 10:39:28;;;;;;;4.80;3.72;;;11.10;99.90;;;;;;5053737;28;20059;-87
2023/03/31 10:41:56;;;;;;;7.15;3.80;;;11.20;99.90;;;;;;5045287;28;20035;-88
2023/03/31 10:44:40;;;;;;;4.20;3.72;;;11.30;99.90;;;;;;5053124;28;20059;-88
2023/03/31 10:47:14;;;;;;;5.30;4.03;;;11.50;99.90;;;;;;5040381;28;20064;-89
2023/03/31 10:49:43;;;;;;;4.07;3.50;;;11.40;99.90;;;;;;5063542;28;20045;-88
2023/03/31 10:52:19;;;;;;;9.07;4.93;;;11.50;99.90;;;;;;5040797;28;20061;-88
2023/03/31 10:54:59;;;;;;;3.17;2.97;;;11.50;99.90;;;;;;5019864;28;20052;-89
2023/03/31 10:57:55;;;;;;;7.18;4.65;;;12.00;99.90;;;;;;5057465;28;20048;-87
2023/03/31 11:00:56;;;;;;;4.63;3.47;;;12.10;99.90;;;;;;5040146;28;20052;-88
2023/03/31 11:04:03;;;;;;;7.18;5.47;;;12.20;99.90;;;;;;5069917;28;20047;-88
2023/03/31 11:07:05;;;;;;;5.70;4.05;;;12.20;99.90;;;;;;5074062;28;20045;-87
2023/03/31 11:09:51;;;;;;;3.63;3.33;;;12.20;99.90;;;;;;5021678;28;20044;-87
2023/03/31 11:12:50;;;;;;;4.00;2.80;;;12.20;99.90;;;;;;5040932;28;20354;-87
2023/03/31 11:15:28;;;;;;;6.55;3.15;;;12.10;99.90;;;;;;5052746;28;20055;-89
2023/03/31 11:18:14;;;;;;;3.70;3.38;;;12.10;99.90;;;;;;5056180;28;20052;-87
2023/03/31 11:21:12;;;;;;;6.28;4.28;;;12.00;99.90;;;;;;5070983;28;20058;-87
2023/03/31 11:23:43;;;;;;;3.92;3.58;;;11.90;99.90;;;;;;5044847;28;20032;-86
2023/03/31 11:26:42;;;;;;;5.95;3.78;;;11.90;99.90;;;;;;5045674;28;20033;-87
2023/03/31 11:29:34;;;;;;;4.95;3.92;;;12.00;99.90;;;;;;5080991;28;20040;-88
2023/03/31 11:32:39;;;;;;;3.88;3.08;;;11.80;99.90;;;;;;5068464;28;20049;-88
2023/03/31 11:35:46;;;;;;;8.57;3.55;;;11.80;99.90;;;;;;5090463;28;20070;-87
2023/03/31 11:38:34;;;;;;;5.50;5.00;;;11.60;99.90;;;;;;5053997;28;20036;-89
2023/03/31 11:41:33;;;;;;;4.60;3.42;;;11.40;99.90;;;;;;5071466;28;20044;-92
2023/03/31 11:44:09;;;;;;;4.15;3.67;;;11.20;99.90;;;;;;5048728;28;20450;-87
2023/03/31 11:46:47;;;;;;;5.95;4.45;;;11.00;99.90;;;;;;5018015;28;20055;-90
2023/03/31 11:49:27;;;;;;;5.45;5.00;;;10.70;99.90;;;;;;5007763;28;20061;-89
2023/03/31 11:52:05;;;;;;;4.25;3.83;;;10.10;99.90;;;;;;5016348;28;20966;-91
2023/03/31 11:54:41;;;;;;;6.05;4.05;;;9.40;99.90;;;;;;5003509;28;20052;-86
2023/03/31 11:57:32;;;;;;;3.92;3.15;;;9.00;99.90;;;;;;5046815;28;20052;-89
2023/03/31 12:00:43;;;;;;;1.75;1.65;;;8.70;99.90;;;;;;5037133;28;20091;-87
2023/03/31 12:03:36;;;;;;;1.70;1.60;;;8.40;99.90;;;;;;5046833;28;20068;-91
2023/03/31 12:06:15;;;;;;;4.05;1.60;;;8.30;99.90;;;;;;5049637;28;20059;-89
2023/03/31 12:09:03;;;;;;;2.97;1.30;;;8.60;99.90;;;;;;5052492;28;20048;-87
2023/03/31 12:11:56;;;;;;;3.75;1.98;;;8.90;99.90;;;;;;5037031;28;20048;-93
2023/03/31 12:14:33;;;;;;;2.28;2.13;;;9.10;99.90;;;;;;5026344;28;20479;-89
2023/03/31 12:17:17;;;;;;;2.47;2.00;;;9.30;99.90;;;;;;5051952;28;20421;-92
2023/03/31 12:19:52;;;;;;;1.50;1.48;;;9.40;99.90;;;;;;5050321;28;20044;-90
2023/03/31 12:22:42;;;;;;;2.97;1.40;;;9.50;99.90;;;;;;5041439;28;20052;-87
2023/03/31 12:25:15;;;;;;;1.38;1.27;;;9.50;99.90;;;;;;5049909;28;20507;-87
2023/03/31 12:27:48;;;;;;;1.45;1.35;;;9.80;99.90;;;;;;5008835;28;20417;-90
2023/03/31 12:30:29;;;;;;;1.95;1.85;;;9.90;99.90;;;;;;5020355;28;20131;-92
2023/03/31 12:33:35;;;;;;;1.50;1.40;;;9.80;99.90;;;;;;5040254;28;20053;-92
2023/03/31 12:36:59;;;;;;;2.65;2.45;;;9.90;99.90;;;;;;5025858;28;20048;-92
2023/03/31 12:39:53;;;;;;;3.80;2.42;;;10.00;99.90;;;;;;5046779;28;20421;-92
2023/03/31 12:42:45;;;;;;;1.70;1.35;;;10.00;99.90;;;;;;5044176;28;20041;-92
2023/03/31 12:45:22;;;;;;;1.77;1.65;;;9.90;99.90;;;;;;5023099;28;20062;-91
2023/03/31 12:48:15;;;;;;;1.67;1.52;;;10.00;99.90;;;;;;5043603;28;20045;-90
2023/03/31 12:51:20;;;;;;;2.20;1.75;;;9.90;99.90;;;;;;5025335;28;20052;-92
2023/03/31 12:54:14;;;;;;;2.30;1.75;;;10.00;99.90;;;;;;5025296;28;20733;-90
2023/03/31 12:57:02;;;;;;;8.27;2.67;;;9.90;99.90;;;;;;5022672;28;20060;-90
2023/03/31 12:59:34;;;;;;;3.05;1.83;;;9.90;99.90;;;;;;5026662;28;20049;-92
2023/03/31 13:02:09;;;;;;;4.05;1.95;;;9.90;99.90;;;;;;5051472;28;20055;-92
2023/03/31 13:04:37;;;;;;;4.07;2.70;;;9.90;99.90;;;;;;5024935;28;20524;-91
2023/03/31 13:07:36;;;;;;;2.65;2.45;;;9.90;99.90;;;;;;5052000;28;20057;-92
2023/03/31 13:10:13;;;;;;;2.80;1.95;;;10.00;99.90;;;;;;5043214;28;20067;-92
2023/03/31 13:12:53;;;;;;;2.38;2.17;;;10.10;99.90;;;;;;5044303;28;20072;-92
2023/03/31 13:15:23;;;;;;;7.97;2.35;;;10.10;99.90;;;;;;5052089;28;20595;-90
2023/03/31 13:17:57;;;;;;;2.83;2.53;;;10.20;99.90;;;;;;5038979;28;20810;-92
2023/03/31 13:20:34;;;;;;;3.22;2.83;;;10.40;99.90;;;;;;5034302;28;20068;-91
2023/03/31 13:23:02;;;;;;;4.53;3.20;;;10.50;99.90;;;;;;5017193;28;20053;-90
2023/03/31 13:25:31;;;;;;;4.93;2.72;;;10.60;99.90;;;;;;5038906;28;20060;-89
2023/03/31 13:28:41;;;;;;;2.67;2.47;;;10.60;99.90;;;;;;4998210;28;20045;-91
2023/03/31 13:31:11;;;;;;;1.95;1.85;;;10.50;99.90;;;;;;5044682;28;20048;-91
2023/03/31 13:33:56;;;;;;;2.53;1.80;;;10.50;99.90;;;;;;5047106;28;20067;-87
2023/03/31 13:36:32;;;;;;;3.90;1.95;;;10.60;99.90;;;;;;5036215;28;20398;-88